sensor_id;sensor_type;location;lat;lon;timestamp;pressure;altitude;pressure_sealevel;temperature;humidity
59103;BME280;43999;51.660;5.616;2023-02-13T00:00:10;103501.03;;;6.89;100.00
59103;BME280;43999;51.660;5.616;2023-02-13T00:02:44;103512.34;;;6.91;100.00
59103;BME280;43999;51.660;5.616;2023-02-13T00:05:15;103505.41;;;6.90;100.00
59103;BME280;43999;51.660;5.616;2023-02-13T00:07:47;103505.41;;;6.90;100.00
59103;BME280;43999;51.660;5.616;2023-02-13T00:10:15;103501.03;;;6.92;100.00
59103;BME280;43999;51.660;5.616;2023-02-13T00:12:44;103501.94;;;6.91;100.00
59103;BME280;43999;51.660;5.616;2023-02-13T00:15:11;103498.41;;;6.88;100.00
59103;BME280;43999;51.660;5.616;2023-02-13T00:17:48;103505.41;;;6.90;100.00
59103;BME280;43999;51.660;5.616;2023-02-13T00:20:15;103499.31;;;6.90;100.00
59103;BME280;43999;51.660;5.616;2023-02-13T00:22:43;103498.41;;;6.88;100.00
59103;BME280;43999;51.660;5.616;2023-02-13T00:25:11;103501.94;;;6.90;100.00
59103;BME280;43999;51.660;5.616;2023-02-13T00:27:38;103496.72;;;6.90;100.00
59103;BME280;43999;51.660;5.616;2023-02-13T00:30:07;103500.19;;;6.92;100.00
59103;BME280;43999;51.660;5.616;2023-02-13T00:32:38;103498.44;;;6.89;100.00
59103;BME280;43999;51.660;5.616;2023-02-13T00:35:07;103499.31;;;6.87;100.00
59103;BME280;43999;51.660;5.616;2023-02-13T00:37:38;103494.09;;;6.90;100.00
59103;BME280;43999;51.660;5.616;2023-02-13T00:40:06;103493.22;;;6.89;100.00
59103;BME280;43999;51.660;5.616;2023-02-13T00:42:40;103488.88;;;6.87;100.00
59103;BME280;43999;51.660;5.616;2023-02-13T00:45:08;103487.13;;;6.86;100.00
59103;BME280;43999;51.660;5.616;2023-02-13T00:47:37;103481.91;;;6.86;100.00
59103;BME280;43999;51.660;5.616;2023-02-13T00:50:05;103494.09;;;6.85;100.00
59103;BME280;43999;51.660;5.616;2023-02-13T00:52:36;103485.38;;;6.85;100.00
59103;BME280;43999;51.660;5.616;2023-02-13T00:55:05;103485.38;;;6.83;100.00
59103;BME280;43999;51.660;5.616;2023-02-13T00:57:38;103483.66;;;6.84;100.00
59103;BME280;43999;51.660;5.616;2023-02-13T01:00:10;103487.97;;;6.83;100.00
59103;BME280;43999;51.660;5.616;2023-02-13T01:02:44;103487.13;;;6.82;100.00
59103;BME280;43999;51.660;5.616;2023-02-13T01:05:17;103489.72;;;6.81;100.00
59103;BME280;43999;51.660;5.616;2023-02-13T01:07:46;103493.16;;;6.80;100.00
59103;BME280;43999;51.660;5.616;2023-02-13T01:10:17;103494.94;;;6.81;100.00
59103;BME280;43999;51.660;5.616;2023-02-13T01:12:48;103496.66;;;6.80;100.00
59103;BME280;43999;51.660;5.616;2023-02-13T01:15:16;103493.19;;;6.81;100.00
59103;BME280;43999;51.660;5.616;2023-02-13T01:17:46;103494.06;;;6.82;100.00
59103;BME280;43999;51.660;5.616;2023-02-13T01:20:16;103496.69;;;6.82;100.00
59103;BME280;43999;51.660;5.616;2023-02-13T01:22:48;103500.13;;;6.81;100.00
59103;BME280;43999;51.660;5.616;2023-02-13T01:25:17;103494.06;;;6.82;100.00
59103;BME280;43999;51.660;5.616;2023-02-13T01:27:49;103493.19;;;6.81;100.00
59103;BME280;43999;51.660;5.616;2023-02-13T01:30:20;103495.78;;;6.83;100.00
59103;BME280;43999;51.660;5.616;2023-02-13T01:32:49;103493.19;;;6.81;100.00
59103;BME280;43999;51.660;5.616;2023-02-13T01:35:21;103487.94;;;6.78;100.00
59103;BME280;43999;51.660;5.616;2023-02-13T01:37:54;103490.56;;;6.78;100.00
59103;BME280;43999;51.660;5.616;2023-02-13T01:40:24;103487.94;;;6.78;100.00
59103;BME280;43999;51.660;5.616;2023-02-13T01:43:00;103488.84;;;6.77;100.00
59103;BME280;43999;51.660;5.616;2023-02-13T01:45:31;103495.75;;;6.77;100.00
59103;BME280;43999;51.660;5.616;2023-02-13T01:48:03;103490.53;;;6.75;100.00
59103;BME280;43999;51.660;5.616;2023-02-13T01:51:02;103477.50;;;6.72;100.00
59103;BME280;43999;51.660;5.616;2023-02-13T01:53:49;103469.69;;;6.72;100.00
59103;BME280;43999;51.660;5.616;2023-02-13T01:56:36;103471.44;;;6.72;100.00
59103;BME280;43999;51.660;5.616;2023-02-13T01:59:33;103475.75;;;6.68;100.00
59103;BME280;43999;51.660;5.616;2023-02-13T02:02:10;103465.31;;;6.63;100.00
59103;BME280;43999;51.660;5.616;2023-02-13T02:04:41;103478.34;;;6.65;100.00
59103;BME280;43999;51.660;5.616;2023-02-13T02:07:23;103476.59;;;6.64;100.00
59103;BME280;43999;51.660;5.616;2023-02-13T02:10:10;103480.97;;;6.65;100.00
59103;BME280;43999;51.660;5.616;2023-02-13T02:15:38;103465.31;;;6.60;100.00
59103;BME280;43999;51.660;5.616;2023-02-13T02:18:21;103462.69;;;6.60;100.00
59103;BME280;43999;51.660;5.616;2023-02-13T02:24:14;103467.03;;;6.61;100.00
59103;BME280;43999;51.660;5.616;2023-02-13T02:27:10;103464.41;;;6.61;100.00
59103;BME280;43999;51.660;5.616;2023-02-13T02:30:28;103467.03;;;6.61;100.00
59103;BME280;43999;51.660;5.616;2023-02-13T02:33:46;103471.38;;;6.59;100.00
59103;BME280;43999;51.660;5.616;2023-02-13T02:36:55;103469.66;;;6.58;100.00
59103;BME280;43999;51.660;5.616;2023-02-13T02:46:20;103458.31;;;6.56;100.00
59103;BME280;43999;51.660;5.616;2023-02-13T02:49:12;103455.72;;;6.53;100.00
59103;BME280;43999;51.660;5.616;2023-02-13T02:52:06;103448.78;;;6.54;100.00
59103;BME280;43999;51.660;5.616;2023-02-13T02:54:53;103457.44;;;6.53;100.00
59103;BME280;43999;51.660;5.616;2023-02-13T03:01:17;103447.00;;;6.48;100.00
59103;BME280;43999;51.660;5.616;2023-02-13T03:04:31;103452.19;;;6.42;100.00
59103;BME280;43999;51.660;5.616;2023-02-13T03:07:22;103460.81;;;6.35;100.00
59103;BME280;43999;51.660;5.616;2023-02-13T03:09:58;103455.56;;;6.28;100.00
59103;BME280;43999;51.660;5.616;2023-02-13T03:13:01;103455.50;;;6.18;100.00
59103;BME280;43999;51.660;5.616;2023-02-13T03:15:57;103459.78;;;6.06;100.00
59103;BME280;43999;51.660;5.616;2023-02-13T03:18:54;103450.16;;;5.99;100.00
59103;BME280;43999;51.660;5.616;2023-02-13T03:25:46;103456.94;;;5.82;100.00
59103;BME280;43999;51.660;5.616;2023-02-13T03:28:55;103460.34;;;5.73;100.00
59103;BME280;43999;51.660;5.616;2023-02-13T03:32:28;103457.66;;;5.65;100.00
59103;BME280;43999;51.660;5.616;2023-02-13T03:35:46;103458.47;;;5.56;100.00
59103;BME280;43999;51.660;5.616;2023-02-13T03:39:21;103451.44;;;5.46;100.00
59103;BME280;43999;51.660;5.616;2023-02-13T03:43:07;103461.78;;;5.42;100.00
59103;BME280;43999;51.660;5.616;2023-02-13T03:45:45;103463.47;;;5.35;100.00
59103;BME280;43999;51.660;5.616;2023-02-13T03:48:28;103462.53;;;5.30;100.00
59103;BME280;43999;51.660;5.616;2023-02-13T03:51:44;103463.34;;;5.23;100.00
59103;BME280;43999;51.660;5.616;2023-02-13T03:54:32;103456.34;;;5.17;100.00
59103;BME280;43999;51.660;5.616;2023-02-13T03:57:30;103459.75;;;5.10;100.00
59103;BME280;43999;51.660;5.616;2023-02-13T04:00:19;103456.19;;;5.05;100.00
59103;BME280;43999;51.660;5.616;2023-02-13T04:06:09;103456.97;;;4.94;100.00
59103;BME280;43999;51.660;5.616;2023-02-13T04:08:40;103455.97;;;4.86;100.00
59103;BME280;43999;51.660;5.616;2023-02-13T04:14:47;103462.91;;;4.84;100.00
59103;BME280;43999;51.660;5.616;2023-02-13T04:17:51;103465.44;;;4.81;100.00
59103;BME280;43999;51.660;5.616;2023-02-13T04:20:29;103468.00;;;4.76;100.00
59103;BME280;43999;51.660;5.616;2023-02-13T04:23:09;103469.72;;;4.74;100.00
59103;BME280;43999;51.660;5.616;2023-02-13T04:25:42;103465.31;;;4.70;100.00
59103;BME280;43999;51.660;5.616;2023-02-13T04:28:15;103460.94;;;4.67;100.00
59103;BME280;43999;51.660;5.616;2023-02-13T04:30:44;103462.66;;;4.65;100.00
59103;BME280;43999;51.660;5.616;2023-02-13T04:33:18;103464.34;;;4.60;100.00
59103;BME280;43999;51.660;5.616;2023-02-13T04:35:46;103465.16;;;4.58;100.00
59103;BME280;43999;51.660;5.616;2023-02-13T04:38:13;103464.28;;;4.56;100.00
59103;BME280;43999;51.660;5.616;2023-02-13T04:40:43;103461.63;;;4.53;100.00
59103;BME280;43999;51.660;5.616;2023-02-13T04:43:12;103459.00;;;4.49;100.00
59103;BME280;43999;51.660;5.616;2023-02-13T04:45:53;103456.31;;;4.43;100.00
59103;BME280;43999;51.660;5.616;2023-02-13T04:48:25;103453.69;;;4.40;100.00
59103;BME280;43999;51.660;5.616;2023-02-13T04:50:54;103451.91;;;4.38;100.00
59103;BME280;43999;51.660;5.616;2023-02-13T04:53:23;103447.50;;;4.34;100.00
59103;BME280;43999;51.660;5.616;2023-02-13T04:55:51;103450.97;;;4.33;100.00
59103;BME280;43999;51.660;5.616;2023-02-13T04:58:22;103446.63;;;4.31;100.00
59103;BME280;43999;51.660;5.616;2023-02-13T05:00:50;103444.03;;;4.31;100.00
59103;BME280;43999;51.660;5.616;2023-02-13T05:03:19;103444.81;;;4.27;100.00
59103;BME280;43999;51.660;5.616;2023-02-13T05:05:48;103437.88;;;4.23;100.00
59103;BME280;43999;51.660;5.616;2023-02-13T05:08:22;103435.25;;;4.23;100.00
59103;BME280;43999;51.660;5.616;2023-02-13T05:11:01;103437.81;;;4.20;100.00
59103;BME280;43999;51.660;5.616;2023-02-13T05:13:29;103435.19;;;4.19;100.00
59103;BME280;43999;51.660;5.616;2023-02-13T05:15:58;103436.03;;;4.18;100.00
59103;BME280;43999;51.660;5.616;2023-02-13T05:18:27;103435.13;;;4.14;100.00
59103;BME280;43999;51.660;5.616;2023-02-13T05:20:58;103438.53;;;4.11;100.00
59103;BME280;43999;51.660;5.616;2023-02-13T05:23:44;103436.75;;;4.09;100.00
59103;BME280;43999;51.660;5.616;2023-02-13T05:26:12;103433.28;;;4.07;100.00
59103;BME280;43999;51.660;5.616;2023-02-13T05:28:40;103433.22;;;4.02;100.00
59103;BME280;43999;51.660;5.616;2023-02-13T05:31:39;103428.88;;;4.01;100.00
59103;BME280;43999;51.660;5.616;2023-02-13T05:34:08;103426.25;;;4.00;100.00
59103;BME280;43999;51.660;5.616;2023-02-13T05:36:37;103436.63;;;4.00;100.00
59103;BME280;43999;51.660;5.616;2023-02-13T05:39:05;103439.19;;;3.98;100.00
59103;BME280;43999;51.660;5.616;2023-02-13T05:41:33;103430.56;;;3.98;100.00
59103;BME280;43999;51.660;5.616;2023-02-13T05:44:01;103425.31;;;3.94;100.00
59103;BME280;43999;51.660;5.616;2023-02-13T05:46:30;103433.09;;;3.94;100.00
59103;BME280;43999;51.660;5.616;2023-02-13T05:48:59;103424.38;;;3.89;100.00
59103;BME280;43999;51.660;5.616;2023-02-13T05:51:37;103422.63;;;3.88;100.00
59103;BME280;43999;51.660;5.616;2023-02-13T05:54:06;103429.53;;;3.88;100.00
59103;BME280;43999;51.660;5.616;2023-02-13T05:56:34;103427.75;;;3.85;100.00
59103;BME280;43999;51.660;5.616;2023-02-13T05:59:02;103432.06;;;3.83;100.00
59103;BME280;43999;51.660;5.616;2023-02-13T06:01:31;103443.28;;;3.82;100.00
59103;BME280;43999;51.660;5.616;2023-02-13T06:04:08;103432.88;;;3.81;100.00
59103;BME280;43999;51.660;5.616;2023-02-13T06:06:35;103430.25;;;3.79;100.00
59103;BME280;43999;51.660;5.616;2023-02-13T06:09:05;103434.56;;;3.77;100.00
59103;BME280;43999;51.660;5.616;2023-02-13T06:11:34;103424.97;;;3.73;100.00
59103;BME280;43999;51.660;5.616;2023-02-13T06:14:10;103436.25;;;3.73;100.00
59103;BME280;43999;51.660;5.616;2023-02-13T06:16:52;103430.13;;;3.71;100.00
59103;BME280;43999;51.660;5.616;2023-02-13T06:19:22;103426.66;;;3.69;100.00
59103;BME280;43999;51.660;5.616;2023-02-13T06:21:52;103421.44;;;3.68;100.00
59103;BME280;43999;51.660;5.616;2023-02-13T06:24:41;103424.88;;;3.67;100.00
59103;BME280;43999;51.660;5.616;2023-02-13T06:27:10;103420.53;;;3.64;100.00
59103;BME280;43999;51.660;5.616;2023-02-13T06:29:37;103428.28;;;3.63;100.00
59103;BME280;43999;51.660;5.616;2023-02-13T06:32:05;103434.31;;;3.62;100.00
59103;BME280;43999;51.660;5.616;2023-02-13T06:34:36;103433.41;;;3.59;100.00
59103;BME280;43999;51.660;5.616;2023-02-13T06:37:06;103431.63;;;3.57;100.00
59103;BME280;43999;51.660;5.616;2023-02-13T06:40:00;103434.19;;;3.55;100.00
59103;BME280;43999;51.660;5.616;2023-02-13T06:42:30;103439.34;;;3.54;100.00
59103;BME280;43999;51.660;5.616;2023-02-13T06:45:00;103443.69;;;3.53;100.00
59103;BME280;43999;51.660;5.616;2023-02-13T06:47:30;103437.53;;;3.50;100.00
59103;BME280;43999;51.660;5.616;2023-02-13T06:50:14;103435.81;;;3.49;100.00
59103;BME280;43999;51.660;5.616;2023-02-13T06:52:48;103440.97;;;3.47;100.00
59103;BME280;43999;51.660;5.616;2023-02-13T06:55:22;103435.75;;;3.44;100.00
59103;BME280;43999;51.660;5.616;2023-02-13T06:57:58;103435.75;;;3.44;100.00
59103;BME280;43999;51.660;5.616;2023-02-13T07:00:28;103428.81;;;3.45;100.00
59103;BME280;43999;51.660;5.616;2023-02-13T07:03:05;103437.47;;;3.45;100.00
59103;BME280;43999;51.660;5.616;2023-02-13T07:05:40;103438.38;;;3.47;100.00
59103;BME280;43999;51.660;5.616;2023-02-13T07:08:10;103441.75;;;3.43;100.00
59103;BME280;43999;51.660;5.616;2023-02-13T07:10:41;103440.06;;;3.45;100.00
59103;BME280;43999;51.660;5.616;2023-02-13T07:13:13;103448.69;;;3.44;100.00
59103;BME280;43999;51.660;5.616;2023-02-13T07:15:42;103462.53;;;3.45;100.00
59103;BME280;43999;51.660;5.616;2023-02-13T07:18:29;103462.53;;;3.45;100.00
59103;BME280;43999;51.660;5.616;2023-02-13T07:20:58;103460.78;;;3.44;100.00
59103;BME280;43999;51.660;5.616;2023-02-13T07:23:28;103471.22;;;3.48;100.00
59103;BME280;43999;51.660;5.616;2023-02-13T07:26:01;103472.13;;;3.49;100.00
59103;BME280;43999;51.660;5.616;2023-02-13T07:28:42;103475.59;;;3.51;100.00
59103;BME280;43999;51.660;5.616;2023-02-13T07:31:13;103475.63;;;3.52;100.00
59103;BME280;43999;51.660;5.616;2023-02-13T07:33:42;103479.09;;;3.53;100.00
59103;BME280;43999;51.660;5.616;2023-02-13T07:36:22;103474.84;;;3.56;100.00
59103;BME280;43999;51.660;5.616;2023-02-13T07:38:56;103473.09;;;3.55;100.00
59103;BME280;43999;51.660;5.616;2023-02-13T07:41:46;103468.78;;;3.57;100.00
59103;BME280;43999;51.660;5.616;2023-02-13T07:44:19;103467.97;;;3.58;100.00
59103;BME280;43999;51.660;5.616;2023-02-13T07:46:46;103474.00;;;3.59;100.00
59103;BME280;43999;51.660;5.616;2023-02-13T07:49:17;103473.19;;;3.62;100.00
59103;BME280;43999;51.660;5.616;2023-02-13T07:51:46;103468.91;;;3.64;100.00
59103;BME280;43999;51.660;5.616;2023-02-13T07:54:17;103469.84;;;3.67;100.00
59103;BME280;43999;51.660;5.616;2023-02-13T07:56:53;103470.75;;;3.71;100.00
59103;BME280;43999;51.660;5.616;2023-02-13T07:59:29;103464.78;;;3.75;100.00
59103;BME280;43999;51.660;5.616;2023-02-13T08:02:00;103481.28;;;3.79;100.00
59103;BME280;43999;51.660;5.616;2023-02-13T08:04:32;103480.47;;;3.83;100.00
59103;BME280;43999;51.660;5.616;2023-02-13T08:07:03;103472.78;;;3.87;100.00
59103;BME280;43999;51.660;5.616;2023-02-13T08:09:35;103469.38;;;3.91;100.00
59103;BME280;43999;51.660;5.616;2023-02-13T08:12:22;103489.38;;;3.99;100.00
59103;BME280;43999;51.660;5.616;2023-02-13T08:14:59;103489.47;;;4.05;100.00
59103;BME280;43999;51.660;5.616;2023-02-13T08:17:37;103493.03;;;4.11;100.00
59103;BME280;43999;51.660;5.616;2023-02-13T08:20:08;103490.53;;;4.18;100.00
59103;BME280;43999;51.660;5.616;2023-02-13T08:22:46;103491.44;;;4.21;100.00
59103;BME280;43999;51.660;5.616;2023-02-13T08:25:43;103491.56;;;4.29;100.00
59103;BME280;43999;51.660;5.616;2023-02-13T08:28:28;103497.75;;;4.37;100.00
59103;BME280;43999;51.660;5.616;2023-02-13T08:31:00;103496.97;;;4.44;100.00
59103;BME280;43999;51.660;5.616;2023-02-13T08:33:33;103507.50;;;4.54;100.00
59103;BME280;43999;51.660;5.616;2023-02-13T08:36:03;103507.59;;;4.60;100.00
59103;BME280;43999;51.660;5.616;2023-02-13T08:38:47;103515.44;;;4.64;100.00
59103;BME280;43999;51.660;5.616;2023-02-13T08:41:18;103513.81;;;4.71;100.00
59103;BME280;43999;51.660;5.616;2023-02-13T08:43:54;103507.81;;;4.77;100.00
59103;BME280;43999;51.660;5.616;2023-02-13T08:46:37;103515.75;;;4.88;100.00
59103;BME280;43999;51.660;5.616;2023-02-13T08:49:09;103511.50;;;4.91;100.00
59103;BME280;43999;51.660;5.616;2023-02-13T08:51:53;103515.00;;;4.96;100.00
59103;BME280;43999;51.660;5.616;2023-02-13T08:54:43;103519.47;;;5.05;100.00
59103;BME280;43999;51.660;5.616;2023-02-13T08:57:15;103509.94;;;5.07;100.00
59103;BME280;43999;51.660;5.616;2023-02-13T08:59:43;103505.63;;;5.09;100.00
59103;BME280;43999;51.660;5.616;2023-02-13T09:02:11;103509.19;;;5.14;100.00
59103;BME280;43999;51.660;5.616;2023-02-13T09:05:25;103504.91;;;5.21;100.00
59103;BME280;43999;51.660;5.616;2023-02-13T09:08:03;103506.72;;;5.27;100.00
59103;BME280;43999;51.660;5.616;2023-02-13T09:11:18;103502.44;;;5.32;100.00
59103;BME280;43999;51.660;5.616;2023-02-13T09:13:45;103499.88;;;5.35;100.00
59103;BME280;43999;51.660;5.616;2023-02-13T09:16:36;103506.81;;;5.39;100.00
59103;BME280;43999;51.660;5.616;2023-02-13T09:19:07;103501.66;;;5.42;100.00
59103;BME280;43999;51.660;5.616;2023-02-13T09:21:48;103506.03;;;5.46;100.00
59103;BME280;43999;51.660;5.616;2023-02-13T09:24:27;103507.88;;;5.53;100.00
59103;BME280;43999;51.660;5.616;2023-02-13T09:26:55;103507.88;;;5.55;100.00
59103;BME280;43999;51.660;5.616;2023-02-13T09:29:23;103508.78;;;5.59;100.00
59103;BME280;43999;51.660;5.616;2023-02-13T09:32:04;103507.94;;;5.60;100.00
59103;BME280;43999;51.660;5.616;2023-02-13T09:34:49;103518.38;;;5.64;100.00
59103;BME280;43999;51.660;5.616;2023-02-13T09:37:19;103515.84;;;5.70;100.00
59103;BME280;43999;51.660;5.616;2023-02-13T09:39:49;103515.88;;;5.75;100.00
59103;BME280;43999;51.660;5.616;2023-02-13T09:42:33;103522.00;;;5.83;100.00
59103;BME280;43999;51.660;5.616;2023-02-13T09:45:11;103516.00;;;5.87;100.00
59103;BME280;43999;51.660;5.616;2023-02-13T09:47:44;103525.56;;;5.93;100.00
59103;BME280;43999;51.660;5.616;2023-02-13T09:50:30;103513.53;;;6.01;100.00
59103;BME280;43999;51.660;5.616;2023-02-13T09:53:29;103520.50;;;6.05;100.00
59103;BME280;43999;51.660;5.616;2023-02-13T09:56:55;103514.44;;;6.08;100.00
59103;BME280;43999;51.660;5.616;2023-02-13T10:15:17;103513.84;;;6.41;100.00
59103;BME280;43999;51.660;5.616;2023-02-13T10:18:05;103517.38;;;6.54;100.00
59103;BME280;43999;51.660;5.616;2023-02-13T10:20:55;103514.75;;;6.51;100.00
59103;BME280;43999;51.660;5.616;2023-02-13T10:26:50;103511.31;;;6.61;100.00
59103;BME280;43999;51.660;5.616;2023-02-13T10:39:26;103499.38;;;7.02;100.00
59103;BME280;43999;51.660;5.616;2023-02-13T10:48:55;103491.19;;;9.49;100.00
59103;BME280;43999;51.660;5.616;2023-02-13T11:01:56;103497.25;;;12.78;100.00
59103;BME280;43999;51.660;5.616;2023-02-13T11:04:31;103493.50;;;13.28;100.00
59103;BME280;43999;51.660;5.616;2023-02-13T11:07:04;103488.09;;;13.72;100.00
59103;BME280;43999;51.660;5.616;2023-02-13T11:10:23;103495.84;;;14.14;100.00
59103;BME280;43999;51.660;5.616;2023-02-13T11:13:20;103487.50;;;14.30;100.00
59103;BME280;43999;51.660;5.616;2023-02-13T11:16:20;103482.03;;;14.38;100.00
59103;BME280;43999;51.660;5.616;2023-02-13T11:18:51;103478.53;;;14.35;96.67
59103;BME280;43999;51.660;5.616;2023-02-13T11:21:35;103471.72;;;14.28;96.63
59103;BME280;43999;51.660;5.616;2023-02-13T11:24:24;103474.44;;;14.25;96.21
59103;BME280;43999;51.660;5.616;2023-02-13T11:27:09;103469.13;;;14.27;96.01
59103;BME280;43999;51.660;5.616;2023-02-13T11:30:06;103456.59;;;14.35;95.56
59103;BME280;43999;51.660;5.616;2023-02-13T11:36:29;103448.63;;;14.37;93.65
59103;BME280;43999;51.660;5.616;2023-02-13T11:39:22;103445.91;;;14.40;92.55
59103;BME280;43999;51.660;5.616;2023-02-13T11:41:56;103442.41;;;14.39;92.81
59103;BME280;43999;51.660;5.616;2023-02-13T11:45:04;103442.59;;;14.33;94.22
59103;BME280;43999;51.660;5.616;2023-02-13T11:47:56;103433.88;;;14.29;94.41
59103;BME280;43999;51.660;5.616;2023-02-13T11:50:32;103434.69;;;14.33;91.62
59103;BME280;43999;51.660;5.616;2023-02-13T11:53:19;103438.25;;;14.30;92.35
59103;BME280;43999;51.660;5.616;2023-02-13T11:56:13;103435.72;;;14.27;92.88
59103;BME280;43999;51.660;5.616;2023-02-13T11:59:01;103433.75;;;14.34;91.70
59103;BME280;43999;51.660;5.616;2023-02-13T12:01:31;103427.75;;;14.29;90.99
59103;BME280;43999;51.660;5.616;2023-02-13T12:04:23;103432.22;;;14.27;89.83
59103;BME280;43999;51.660;5.616;2023-02-13T12:07:19;103435.63;;;14.30;90.08
59103;BME280;43999;51.660;5.616;2023-02-13T12:10:23;103426.50;;;14.42;88.48
59103;BME280;43999;51.660;5.616;2023-02-13T12:13:12;103434.47;;;14.41;91.28
59103;BME280;43999;51.660;5.616;2023-02-13T12:16:26;103431.91;;;14.38;92.16
59103;BME280;43999;51.660;5.616;2023-02-13T12:19:34;103426.59;;;14.39;90.18
59103;BME280;43999;51.660;5.616;2023-02-13T12:29:39;103408.25;;;14.66;88.52
59103;BME280;43999;51.660;5.616;2023-02-13T13:12:21;103371.03;;;15.55;81.24
59103;BME280;43999;51.660;5.616;2023-02-13T13:22:40;103361.00;;;16.83;76.29
59103;BME280;43999;51.660;5.616;2023-02-13T13:28:58;103357.38;;;17.29;72.70
59103;BME280;43999;51.660;5.616;2023-02-13T13:31:29;103361.19;;;17.23;72.77
59103;BME280;43999;51.660;5.616;2023-02-13T13:34:12;103353.94;;;17.27;70.61
59103;BME280;43999;51.660;5.616;2023-02-13T13:50:39;103336.09;;;19.05;63.31
59103;BME280;43999;51.660;5.616;2023-02-13T13:53:17;103337.69;;;19.09;62.03
59103;BME280;43999;51.660;5.616;2023-02-13T13:56:17;103328.66;;;19.11;60.33
59103;BME280;43999;51.660;5.616;2023-02-13T13:58:58;103319.91;;;18.73;60.84
59103;BME280;43999;51.660;5.616;2023-02-13T14:01:30;103325.88;;;18.41;61.29
59103;BME280;43999;51.660;5.616;2023-02-13T14:09:48;103328.81;;;17.97;62.46
59103;BME280;43999;51.660;5.616;2023-02-13T14:14:59;103323.56;;;16.93;65.24
59103;BME280;43999;51.660;5.616;2023-02-13T14:34:18;103307.94;;;19.01;59.16
59103;BME280;43999;51.660;5.616;2023-02-13T14:43:49;103304.53;;;18.98;58.53
59103;BME280;43999;51.660;5.616;2023-02-13T14:46:34;103297.66;;;18.58;59.78
59103;BME280;43999;51.660;5.616;2023-02-13T14:49:34;103301.78;;;18.63;58.70
59103;BME280;43999;51.660;5.616;2023-02-13T14:52:28;103298.13;;;18.66;58.50
59103;BME280;43999;51.660;5.616;2023-02-13T14:55:52;103299.06;;;18.65;59.17
59103;BME280;43999;51.660;5.616;2023-02-13T14:58:24;103295.78;;;18.60;59.37
59103;BME280;43999;51.660;5.616;2023-02-13T15:04:41;103293.09;;;18.42;58.99
59103;BME280;43999;51.660;5.616;2023-02-13T15:07:23;103292.88;;;18.09;59.13
59103;BME280;43999;51.660;5.616;2023-02-13T15:13:21;103294.31;;;17.58;61.83
59103;BME280;43999;51.660;5.616;2023-02-13T15:16:12;103296.75;;;17.62;61.80
59103;BME280;43999;51.660;5.616;2023-02-13T15:18:52;103294.84;;;17.45;62.13
59103;BME280;43999;51.660;5.616;2023-02-13T15:21:23;103286.16;;;17.21;63.16
59103;BME280;43999;51.660;5.616;2023-02-13T15:24:05;103290.94;;;16.92;63.10
59103;BME280;43999;51.660;5.616;2023-02-13T15:26:41;103287.19;;;16.98;64.09
59103;BME280;43999;51.660;5.616;2023-02-13T15:29:18;103295.00;;;17.01;63.53
59103;BME280;43999;51.660;5.616;2023-02-13T15:31:58;103287.59;;;16.65;64.23
59103;BME280;43999;51.660;5.616;2023-02-13T15:34:34;103282.56;;;16.37;64.77
59103;BME280;43999;51.660;5.616;2023-02-13T15:37:05;103286.28;;;16.09;66.32
59103;BME280;43999;51.660;5.616;2023-02-13T15:39:32;103283.88;;;16.03;66.63
59103;BME280;43999;51.660;5.616;2023-02-13T15:42:03;103271.91;;;16.16;67.13
59103;BME280;43999;51.660;5.616;2023-02-13T15:44:43;103271.38;;;16.52;67.08
59103;BME280;43999;51.660;5.616;2023-02-13T15:47:29;103273.31;;;16.91;65.69
59103;BME280;43999;51.660;5.616;2023-02-13T15:50:04;103272.34;;;17.14;64.73
59103;BME280;43999;51.660;5.616;2023-02-13T15:52:45;103270.16;;;17.24;64.35
59103;BME280;43999;51.660;5.616;2023-02-13T15:55:28;103267.75;;;16.97;64.55
59103;BME280;43999;51.660;5.616;2023-02-13T15:58:02;103275.06;;;16.70;65.03
59103;BME280;43999;51.660;5.616;2023-02-13T16:00:36;103265.69;;;16.61;65.85
59103;BME280;43999;51.660;5.616;2023-02-13T16:03:16;103267.28;;;16.43;66.50
59103;BME280;43999;51.660;5.616;2023-02-13T16:06:01;103270.78;;;16.22;67.43
59103;BME280;43999;51.660;5.616;2023-02-13T16:08:37;103253.34;;;15.94;67.88
59103;BME280;43999;51.660;5.616;2023-02-13T16:11:39;103274.38;;;15.48;69.17
59103;BME280;43999;51.660;5.616;2023-02-13T16:14:36;103262.00;;;15.25;71.02
59103;BME280;43999;51.660;5.616;2023-02-13T16:17:35;103257.91;;;14.90;71.87
59103;BME280;43999;51.660;5.616;2023-02-13T16:22:45;103263.81;;;14.43;74.77
59103;BME280;43999;51.660;5.616;2023-02-13T16:25:34;103267.19;;;14.18;76.32
59103;BME280;43999;51.660;5.616;2023-02-13T16:28:37;103260.28;;;13.84;77.28
59103;BME280;43999;51.660;5.616;2023-02-13T16:31:05;103266.44;;;13.53;78.33
59103;BME280;43999;51.660;5.616;2023-02-13T16:33:43;103265.47;;;13.21;80.01
59103;BME280;43999;51.660;5.616;2023-02-13T16:36:30;103268.00;;;12.91;82.67
59103;BME280;43999;51.660;5.616;2023-02-13T16:39:16;103266.06;;;12.62;84.29
59103;BME280;43999;51.660;5.616;2023-02-13T16:41:47;103271.91;;;12.37;86.27
59103;BME280;43999;51.660;5.616;2023-02-13T16:44:31;103262.81;;;12.13;87.10
59103;BME280;43999;51.660;5.616;2023-02-13T16:47:04;103259.69;;;11.94;89.31
59103;BME280;43999;51.660;5.616;2023-02-13T16:49:56;103266.22;;;11.75;90.17
59103;BME280;43999;51.660;5.616;2023-02-13T16:52:25;103268.25;;;11.60;90.58
59103;BME280;43999;51.660;5.616;2023-02-13T16:54:59;103267.63;;;11.46;91.40
59103;BME280;43999;51.660;5.616;2023-02-13T16:57:33;103266.97;;;11.35;93.98
59103;BME280;43999;51.660;5.616;2023-02-13T17:00:21;103267.19;;;11.22;95.25
59103;BME280;43999;51.660;5.616;2023-02-13T17:02:53;103274.41;;;11.11;95.19
59103;BME280;43999;51.660;5.616;2023-02-13T17:05:27;103266.72;;;10.99;96.63